createdAt,value
2019-04-01T00:04:20.403Z,137.63
2019-04-01T00:09:24.133Z,108.30
2019-04-01T00:14:27.921Z,9.47
2019-04-01T00:19:32.333Z,159.70
2019-04-01T00:24:36.047Z,146.97
2019-04-01T00:29:40.013Z,117.70
2019-04-01T00:34:43.766Z,33.60
2019-04-01T00:39:47.482Z,27.17
2019-04-01T00:44:51.206Z,21.87
2019-04-01T00:49:54.888Z,17.80
2019-04-01T00:54:58.602Z,20.60
2019-04-01T01:00:02.301Z,26.23
2019-04-01T01:05:06.193Z,26.10
2019-04-01T01:10:10.549Z,112.10
2019-04-01T01:15:14.487Z,50.30
2019-04-01T01:20:18.193Z,28.67
2019-04-01T01:25:21.893Z,38.50
2019-04-01T01:30:25.573Z,44.67
2019-04-01T01:35:29.307Z,29.97
2019-04-01T01:40:33.026Z,14.30
2019-04-01T01:45:36.995Z,24.70
2019-04-01T01:50:40.730Z,41.50
2019-04-01T01:55:44.546Z,38.00
2019-04-01T02:00:48.283Z,38.90
2019-04-01T02:05:52.023Z,28.37
2019-04-01T02:10:55.749Z,38.20
2019-04-01T02:15:59.792Z,38.50
2019-04-01T02:21:03.593Z,31.73
2019-04-01T02:26:07.590Z,35.20
2019-04-01T02:31:11.374Z,7.47
2019-04-01T02:36:15.113Z,26.17
2019-04-01T02:41:19.159Z,32.37
2019-04-01T02:46:22.951Z,26.07
2019-04-01T02:51:26.923Z,23.07
2019-04-01T02:56:30.633Z,23.60
2019-04-01T03:01:34.371Z,20.83
2019-04-01T03:06:38.277Z,19.77
2019-04-01T03:11:42.434Z,47.07
2019-04-01T03:16:46.341Z,26.93
2019-04-01T03:21:50.065Z,50.10
2019-04-01T03:26:54.318Z,27.87
2019-04-01T03:31:58.085Z,18.60
2019-04-01T03:37:01.797Z,15.87
2019-04-01T03:42:05.592Z,18.23
2019-04-01T03:47:09.346Z,16.93
2019-04-01T03:52:13.601Z,17.83
2019-04-01T03:57:17.329Z,17.77
2019-04-01T04:02:21.165Z,18.37
2019-04-01T04:07:24.973Z,18.23
2019-04-01T04:12:28.702Z,18.87
2019-04-01T04:17:32.490Z,19.83
2019-04-01T04:22:36.207Z,20.30
2019-04-01T04:27:40.220Z,20.63
2019-04-01T04:32:43.972Z,19.07
2019-04-01T04:37:48.016Z,19.13
2019-04-01T04:42:51.743Z,20.27
2019-04-01T04:47:55.724Z,20.33
2019-04-01T04:52:59.773Z,23.10
2019-04-01T04:58:03.666Z,19.40
2019-04-01T05:03:07.558Z,20.40
2019-04-01T05:08:11.331Z,19.97
2019-04-01T05:13:15.150Z,20.17
2019-04-01T05:18:19.029Z,21.63
2019-04-01T05:23:23.459Z,21.17
2019-04-01T05:28:29.615Z,20.83
2019-04-01T05:33:36.278Z,18.63
2019-04-01T05:38:40.050Z,19.40
2019-04-01T05:43:44.103Z,17.90
2019-04-01T05:48:48.074Z,23.27
2019-04-01T05:53:52.155Z,12.50
2019-04-01T05:58:56.298Z,21.33
2019-04-01T06:04:00.200Z,20.73
2019-04-01T06:09:06.261Z,15.47
2019-04-01T06:14:10.509Z,41.77
2019-04-01T06:19:14.588Z,53.53
2019-04-01T06:24:18.717Z,180.83
2019-04-01T06:29:22.623Z,726.60
2019-04-01T06:34:26.621Z,530.33
2019-04-01T06:39:30.495Z,856.43
2019-04-01T06:44:34.720Z,973.97
2019-04-01T06:49:38.549Z,971.27
2019-04-01T06:54:42.395Z,941.43
2019-04-01T06:59:46.724Z,999.90
2019-04-01T07:04:50.476Z,999.90
2019-04-01T07:09:54.263Z,638.57
2019-04-01T07:14:58.329Z,825.27
2019-04-01T07:20:02.509Z,931.47
2019-04-01T07:25:06.510Z,919.27
2019-04-01T07:30:12.728Z,258.37
2019-04-01T07:35:16.690Z,282.80
2019-04-01T07:40:20.686Z,610.30
2019-04-01T07:45:24.519Z,222.77
2019-04-01T07:50:28.652Z,167.87
2019-04-01T07:55:32.637Z,166.70
2019-04-01T08:00:36.697Z,19.17
2019-04-01T08:05:40.525Z,37.03
2019-04-01T08:10:44.375Z,30.27
2019-04-01T08:15:48.472Z,44.50
2019-04-01T08:20:52.211Z,32.00
2019-04-01T08:25:56.334Z,143.73
2019-04-01T08:31:00.444Z,40.10
2019-04-01T08:36:04.272Z,76.13
2019-04-01T08:41:08.014Z,35.80
2019-04-01T08:46:11.898Z,35.87
2019-04-01T08:51:15.736Z,40.93
2019-04-01T08:56:20.029Z,35.43
2019-04-01T09:01:34.600Z,141.80
2019-04-01T09:06:31.346Z,71.07
2019-04-01T09:11:38.219Z,54.17
2019-04-01T09:16:42.031Z,31.97
2019-04-01T09:21:45.777Z,54.97
2019-04-01T09:26:49.518Z,59.20
2019-04-01T09:31:53.411Z,36.40
2019-04-01T09:36:57.153Z,37.83
2019-04-01T09:42:01.002Z,88.03
2019-04-01T09:47:04.993Z,52.50
2019-04-01T09:52:08.911Z,36.37
2019-04-01T09:57:17.830Z,66.07
2019-04-01T10:02:31.299Z,42.07
2019-04-01T10:07:23.789Z,56.87
2019-04-01T10:12:27.630Z,48.20
2019-04-01T10:17:31.440Z,30.43
2019-04-01T10:22:35.193Z,26.90
2019-04-01T10:27:39.092Z,33.10
2019-04-01T10:32:42.887Z,41.57
2019-04-01T10:37:47.765Z,29.80
2019-04-01T10:42:51.981Z,32.97
2019-04-01T10:47:56.039Z,24.50
2019-04-01T10:52:59.924Z,30.30
2019-04-01T10:58:03.861Z,30.80
2019-04-01T11:03:07.747Z,19.80
2019-04-01T11:08:11.656Z,22.37
2019-04-01T11:13:15.427Z,42.13
2019-04-01T11:18:19.255Z,25.80
2019-04-01T11:23:23.100Z,58.97
2019-04-01T11:28:26.909Z,28.83
2019-04-01T11:33:30.706Z,31.50
2019-04-01T11:38:34.667Z,19.57
2019-04-01T11:43:38.547Z,25.80
2019-04-01T11:48:42.461Z,51.00
2019-04-01T11:53:46.211Z,60.63
2019-04-01T11:58:50.039Z,19.30
2019-04-01T12:03:53.844Z,23.63
2019-04-01T12:08:58.862Z,25.27
2019-04-01T12:14:05.095Z,30.93
2019-04-01T12:19:08.214Z,26.73
2019-04-01T12:24:11.942Z,27.30
2019-04-01T12:29:15.659Z,61.00
2019-04-01T12:34:19.827Z,27.03
2019-04-01T12:39:23.580Z,45.33
2019-04-01T12:44:27.567Z,43.57
2019-04-01T12:49:31.302Z,27.63
2019-04-01T12:54:35.107Z,150.30
2019-04-01T12:59:39.092Z,140.10
2019-04-01T13:04:43.076Z,51.37
2019-04-01T13:09:46.786Z,27.30
2019-04-01T13:14:50.499Z,31.13
2019-04-01T13:19:54.306Z,51.87
2019-04-01T13:24:58.098Z,23.13
2019-04-01T13:30:02.025Z,24.07
2019-04-01T13:35:06.349Z,39.57
2019-04-01T13:40:10.938Z,68.87
2019-04-01T13:45:14.810Z,26.10
2019-04-01T13:50:18.810Z,29.37
2019-04-01T13:55:22.611Z,27.70
2019-04-01T14:00:27.503Z,41.33
2019-04-01T14:05:31.395Z,38.70
2019-04-01T14:10:35.122Z,33.10
2019-04-01T14:15:38.850Z,29.67
2019-04-01T14:20:42.610Z,31.90
2019-04-01T14:25:46.339Z,26.60
2019-04-01T14:30:50.351Z,189.53
2019-04-01T14:35:54.079Z,93.63
2019-04-01T14:40:58.208Z,75.23
2019-04-01T14:46:02.144Z,47.40
2019-04-01T14:51:05.946Z,33.67
2019-04-01T14:56:10.827Z,146.67
2019-04-01T15:01:14.707Z,73.67
2019-04-01T15:06:18.526Z,92.90
2019-04-01T15:11:22.352Z,49.67
2019-04-01T15:16:26.184Z,48.33
2019-04-01T15:21:30.242Z,267.37
2019-04-01T15:26:34.221Z,36.73
2019-04-01T15:31:38.195Z,16.63
2019-04-01T15:36:41.959Z,56.23
2019-04-01T15:41:45.762Z,74.97
2019-04-01T15:46:50.351Z,29.33
2019-04-01T15:51:54.107Z,30.40
2019-04-01T15:56:58.332Z,98.70
2019-04-01T16:02:02.667Z,16.87
2019-04-01T16:07:06.519Z,95.57
2019-04-01T16:12:11.459Z,27.83
2019-04-01T16:17:15.233Z,26.80
2019-04-01T16:22:19.254Z,17.67
2019-04-01T16:27:22.989Z,84.03
2019-04-01T16:32:26.751Z,42.63
2019-04-01T16:37:30.858Z,23.53
2019-04-01T16:42:34.626Z,21.50
2019-04-01T16:47:39.952Z,15.70
2019-04-01T16:52:43.963Z,25.50
2019-04-01T16:57:47.821Z,32.13
2019-04-01T17:02:51.827Z,18.33
2019-04-01T17:07:55.687Z,18.23
2019-04-01T17:13:01.377Z,21.90
2019-04-01T17:18:05.071Z,16.97
2019-04-01T17:23:09.135Z,18.50
2019-04-01T17:28:12.875Z,14.87
2019-04-01T17:33:16.727Z,17.97
2019-04-01T17:38:20.731Z,18.57
2019-04-01T17:43:24.475Z,24.80
2019-04-01T17:48:28.312Z,18.57
2019-04-01T17:53:32.195Z,22.50
2019-04-01T17:58:36.021Z,17.30
2019-04-01T18:03:39.949Z,23.17
2019-04-01T18:08:43.680Z,24.63
2019-04-01T18:13:47.732Z,20.10
2019-04-01T18:18:51.531Z,27.23
2019-04-01T18:24:16.055Z,19.40
2019-04-01T18:29:19.803Z,18.40
2019-04-01T18:34:23.878Z,15.60
2019-04-01T18:39:29.940Z,21.90
2019-04-01T18:44:37.384Z,17.10
2019-04-01T18:49:41.448Z,19.40
2019-04-01T18:54:45.356Z,18.47
2019-04-01T18:59:49.967Z,21.03
2019-04-01T19:04:55.653Z,24.77
2019-04-01T19:10:05.976Z,22.80
2019-04-01T19:15:06.761Z,26.00
2019-04-01T19:20:11.441Z,26.70
2019-04-01T19:25:16.032Z,23.20
2019-04-01T19:30:20.652Z,31.13
2019-04-01T19:35:24.552Z,22.20
2019-04-01T19:40:28.457Z,21.70
2019-04-01T19:45:32.200Z,21.40
2019-04-01T19:50:35.991Z,24.20
2019-04-01T19:55:43.709Z,19.67
2019-04-01T20:00:46.307Z,14.87
2019-04-01T20:05:50.122Z,15.83
2019-04-01T20:10:54.522Z,16.67
2019-04-01T20:15:58.734Z,125.40
2019-04-01T20:21:03.249Z,16.70
2019-04-01T20:26:07.397Z,18.20
2019-04-01T20:31:11.522Z,17.67
2019-04-01T20:36:27.599Z,16.80
2019-04-01T20:41:21.494Z,16.70
2019-04-01T20:46:26.294Z,13.30
2019-04-01T20:51:30.292Z,17.50
2019-04-01T20:56:34.340Z,14.07
2019-04-01T21:01:38.069Z,14.00
2019-04-01T21:06:41.863Z,14.10
2019-04-01T21:11:45.652Z,13.17
2019-04-01T21:16:49.640Z,14.03
2019-04-01T21:21:53.361Z,21.10
2019-04-01T21:26:57.123Z,21.30
2019-04-01T21:32:01.217Z,36.90
2019-04-01T21:37:06.067Z,14.80
2019-04-01T21:42:10.130Z,19.47
2019-04-01T21:47:14.329Z,37.00
2019-04-01T21:52:18.080Z,9.10
2019-04-01T21:57:22.745Z,34.60
2019-04-01T22:02:35.707Z,9.57
2019-04-01T22:07:32.337Z,38.43
2019-04-01T22:12:36.087Z,18.37
2019-04-01T22:17:39.812Z,13.13
2019-04-01T22:22:43.562Z,10.40
2019-04-01T22:27:47.414Z,12.70
2019-04-01T22:32:51.395Z,9.03
2019-04-01T22:37:55.143Z,35.87
2019-04-01T22:43:09.436Z,11.77
2019-04-01T22:48:04.619Z,29.30
2019-04-01T22:53:08.627Z,19.47
2019-04-01T22:58:12.379Z,35.43
2019-04-01T23:03:18.264Z,13.30
2019-04-01T23:08:21.881Z,55.60
2019-04-01T23:13:25.718Z,13.80
2019-04-01T23:18:29.496Z,31.27
2019-04-01T23:23:33.214Z,10.30
2019-04-01T23:28:36.964Z,15.30
2019-04-01T23:33:40.778Z,14.93
2019-04-01T23:38:44.547Z,19.23
2019-04-01T23:43:48.547Z,14.30
2019-04-01T23:48:52.314Z,28.07
2019-04-01T23:53:56.095Z,39.63
2019-04-01T23:59:00.193Z,14.83
